sensor_id;sensor_type;location;lat;lon;timestamp;P1;durP1;ratioP1;P2;durP2;ratioP2
2161;SDS011;1087;50.226;8.682;2023-02-19T00:01:05;8.20;;;7.40;;
2161;SDS011;1087;50.226;8.682;2023-02-19T00:03:35;7.93;;;7.13;;
2161;SDS011;1087;50.226;8.682;2023-02-19T00:06:02;8.10;;;7.37;;
2161;SDS011;1087;50.226;8.682;2023-02-19T00:08:33;7.73;;;6.93;;
2161;SDS011;1087;50.226;8.682;2023-02-19T00:11:00;7.70;;;6.90;;
2161;SDS011;1087;50.226;8.682;2023-02-19T00:13:29;7.90;;;7.10;;
2161;SDS011;1087;50.226;8.682;2023-02-19T00:15:55;7.20;;;6.60;;
2161;SDS011;1087;50.226;8.682;2023-02-19T00:18:22;7.90;;;6.73;;
2161;SDS011;1087;50.226;8.682;2023-02-19T00:20:48;7.00;;;6.30;;
2161;SDS011;1087;50.226;8.682;2023-02-19T00:23:13;6.80;;;5.57;;
2161;SDS011;1087;50.226;8.682;2023-02-19T00:25:39;6.87;;;6.27;;
2161;SDS011;1087;50.226;8.682;2023-02-19T00:28:04;6.00;;;5.50;;
2161;SDS011;1087;50.226;8.682;2023-02-19T00:30:30;6.50;;;5.90;;
2161;SDS011;1087;50.226;8.682;2023-02-19T00:32:55;6.43;;;5.80;;
2161;SDS011;1087;50.226;8.682;2023-02-19T00:35:21;6.47;;;5.80;;
2161;SDS011;1087;50.226;8.682;2023-02-19T00:37:47;5.83;;;5.23;;
2161;SDS011;1087;50.226;8.682;2023-02-19T00:40:12;6.17;;;5.67;;
2161;SDS011;1087;50.226;8.682;2023-02-19T00:42:38;6.50;;;5.53;;
2161;SDS011;1087;50.226;8.682;2023-02-19T00:45:03;6.57;;;6.03;;
2161;SDS011;1087;50.226;8.682;2023-02-19T00:47:29;6.70;;;6.10;;
2161;SDS011;1087;50.226;8.682;2023-02-19T00:49:55;7.17;;;6.07;;
2161;SDS011;1087;50.226;8.682;2023-02-19T00:52:20;5.97;;;5.47;;
2161;SDS011;1087;50.226;8.682;2023-02-19T00:54:46;6.80;;;6.20;;
2161;SDS011;1087;50.226;8.682;2023-02-19T00:57:11;5.77;;;5.27;;
2161;SDS011;1087;50.226;8.682;2023-02-19T00:59:37;6.20;;;5.40;;
2161;SDS011;1087;50.226;8.682;2023-02-19T01:02:02;5.60;;;5.13;;
2161;SDS011;1087;50.226;8.682;2023-02-19T01:04:28;6.60;;;5.97;;
2161;SDS011;1087;50.226;8.682;2023-02-19T01:06:53;6.27;;;5.67;;
2161;SDS011;1087;50.226;8.682;2023-02-19T01:09:19;6.40;;;5.80;;
2161;SDS011;1087;50.226;8.682;2023-02-19T01:11:44;6.57;;;6.00;;
2161;SDS011;1087;50.226;8.682;2023-02-19T01:14:10;6.70;;;6.20;;
2161;SDS011;1087;50.226;8.682;2023-02-19T01:16:36;5.83;;;5.33;;
2161;SDS011;1087;50.226;8.682;2023-02-19T01:19:02;5.80;;;5.20;;
2161;SDS011;1087;50.226;8.682;2023-02-19T01:21:28;6.70;;;5.80;;
2161;SDS011;1087;50.226;8.682;2023-02-19T01:23:54;5.37;;;4.97;;
2161;SDS011;1087;50.226;8.682;2023-02-19T01:26:21;5.90;;;5.33;;
2161;SDS011;1087;50.226;8.682;2023-02-19T01:28:49;5.90;;;5.33;;
2161;SDS011;1087;50.226;8.682;2023-02-19T01:31:16;5.33;;;4.83;;
2161;SDS011;1087;50.226;8.682;2023-02-19T01:33:46;4.83;;;4.43;;
2161;SDS011;1087;50.226;8.682;2023-02-19T01:36:14;6.03;;;5.33;;
2161;SDS011;1087;50.226;8.682;2023-02-19T01:38:40;5.07;;;4.67;;
2161;SDS011;1087;50.226;8.682;2023-02-19T01:41:06;6.03;;;5.47;;
2161;SDS011;1087;50.226;8.682;2023-02-19T01:43:33;5.83;;;5.10;;
2161;SDS011;1087;50.226;8.682;2023-02-19T01:46:18;5.67;;;4.77;;
2161;SDS011;1087;50.226;8.682;2023-02-19T01:48:44;5.13;;;4.73;;
2161;SDS011;1087;50.226;8.682;2023-02-19T01:51:12;6.17;;;5.67;;
2161;SDS011;1087;50.226;8.682;2023-02-19T01:53:42;6.10;;;5.50;;
2161;SDS011;1087;50.226;8.682;2023-02-19T01:56:12;6.40;;;5.10;;
2161;SDS011;1087;50.226;8.682;2023-02-19T01:58:39;4.87;;;4.37;;
2161;SDS011;1087;50.226;8.682;2023-02-19T02:01:06;9.70;;;5.40;;
2161;SDS011;1087;50.226;8.682;2023-02-19T02:03:33;5.37;;;4.87;;
2161;SDS011;1087;50.226;8.682;2023-02-19T02:06:13;6.63;;;5.57;;
2161;SDS011;1087;50.226;8.682;2023-02-19T02:08:40;5.13;;;4.70;;
2161;SDS011;1087;50.226;8.682;2023-02-19T02:11:24;5.13;;;4.70;;
2161;SDS011;1087;50.226;8.682;2023-02-19T02:13:51;5.07;;;4.57;;
2161;SDS011;1087;50.226;8.682;2023-02-19T02:18:52;6.00;;;5.40;;
2161;SDS011;1087;50.226;8.682;2023-02-19T02:29:50;5.47;;;4.70;;
2161;SDS011;1087;50.226;8.682;2023-02-19T02:32:19;5.20;;;4.80;;
2161;SDS011;1087;50.226;8.682;2023-02-19T02:34:59;5.03;;;4.63;;
2161;SDS011;1087;50.226;8.682;2023-02-19T02:37:29;5.90;;;5.40;;
2161;SDS011;1087;50.226;8.682;2023-02-19T02:39:58;5.40;;;4.90;;
2161;SDS011;1087;50.226;8.682;2023-02-19T02:42:25;4.93;;;4.43;;
2161;SDS011;1087;50.226;8.682;2023-02-19T02:44:51;5.53;;;5.03;;
2161;SDS011;1087;50.226;8.682;2023-02-19T02:47:40;5.80;;;4.80;;
2161;SDS011;1087;50.226;8.682;2023-02-19T02:50:16;5.47;;;4.83;;
2161;SDS011;1087;50.226;8.682;2023-02-19T02:52:46;5.40;;;4.90;;
2161;SDS011;1087;50.226;8.682;2023-02-19T02:55:33;6.10;;;5.40;;
2161;SDS011;1087;50.226;8.682;2023-02-19T02:58:03;6.73;;;5.70;;
2161;SDS011;1087;50.226;8.682;2023-02-19T03:00:29;5.20;;;4.70;;
2161;SDS011;1087;50.226;8.682;2023-02-19T03:03:16;5.70;;;5.20;;
2161;SDS011;1087;50.226;8.682;2023-02-19T03:05:45;5.70;;;5.20;;
2161;SDS011;1087;50.226;8.682;2023-02-19T03:08:29;5.83;;;5.33;;
2161;SDS011;1087;50.226;8.682;2023-02-19T03:11:04;5.57;;;4.57;;
2161;SDS011;1087;50.226;8.682;2023-02-19T03:13:52;5.43;;;4.93;;
2161;SDS011;1087;50.226;8.682;2023-02-19T03:16:50;5.70;;;4.33;;
2161;SDS011;1087;50.226;8.682;2023-02-19T03:19:39;5.73;;;5.13;;
2161;SDS011;1087;50.226;8.682;2023-02-19T03:22:21;4.93;;;4.43;;
2161;SDS011;1087;50.226;8.682;2023-02-19T03:24:55;5.20;;;4.70;;
2161;SDS011;1087;50.226;8.682;2023-02-19T03:27:47;5.13;;;4.73;;
2161;SDS011;1087;50.226;8.682;2023-02-19T03:30:18;5.13;;;4.63;;
2161;SDS011;1087;50.226;8.682;2023-02-19T03:32:48;5.40;;;4.90;;
2161;SDS011;1087;50.226;8.682;2023-02-19T03:35:23;5.73;;;4.17;;
2161;SDS011;1087;50.226;8.682;2023-02-19T03:37:53;5.97;;;4.70;;
2161;SDS011;1087;50.226;8.682;2023-02-19T03:47:13;4.30;;;4.00;;
2161;SDS011;1087;50.226;8.682;2023-02-19T03:49:43;5.60;;;5.10;;
2161;SDS011;1087;50.226;8.682;2023-02-19T03:52:38;4.80;;;4.40;;
2161;SDS011;1087;50.226;8.682;2023-02-19T03:55:19;4.30;;;3.90;;
2161;SDS011;1087;50.226;8.682;2023-02-19T03:57:58;4.70;;;4.30;;
2161;SDS011;1087;50.226;8.682;2023-02-19T04:00:54;4.40;;;4.03;;
2161;SDS011;1087;50.226;8.682;2023-02-19T04:03:29;4.50;;;4.10;;
2161;SDS011;1087;50.226;8.682;2023-02-19T04:06:00;2.53;;;2.33;;
2161;SDS011;1087;50.226;8.682;2023-02-19T04:08:28;5.93;;;3.03;;
2161;SDS011;1087;50.226;8.682;2023-02-19T04:10:56;3.00;;;2.80;;
2161;SDS011;1087;50.226;8.682;2023-02-19T04:13:32;2.33;;;2.10;;
2161;SDS011;1087;50.226;8.682;2023-02-19T04:16:10;2.80;;;2.00;;
2161;SDS011;1087;50.226;8.682;2023-02-19T04:18:44;2.47;;;2.33;;
2161;SDS011;1087;50.226;8.682;2023-02-19T04:21:13;2.00;;;1.70;;
2161;SDS011;1087;50.226;8.682;2023-02-19T04:23:41;2.37;;;2.20;;
2161;SDS011;1087;50.226;8.682;2023-02-19T04:26:09;2.47;;;1.80;;
2161;SDS011;1087;50.226;8.682;2023-02-19T04:28:37;1.90;;;1.40;;
2161;SDS011;1087;50.226;8.682;2023-02-19T04:31:03;1.70;;;1.60;;
2161;SDS011;1087;50.226;8.682;2023-02-19T04:33:29;1.87;;;1.63;;
2161;SDS011;1087;50.226;8.682;2023-02-19T04:35:54;1.60;;;1.40;;
2161;SDS011;1087;50.226;8.682;2023-02-19T04:38:20;1.50;;;1.40;;
2161;SDS011;1087;50.226;8.682;2023-02-19T04:40:45;1.60;;;1.50;;
2161;SDS011;1087;50.226;8.682;2023-02-19T04:43:11;2.40;;;1.97;;
2161;SDS011;1087;50.226;8.682;2023-02-19T04:45:37;2.33;;;2.17;;
2161;SDS011;1087;50.226;8.682;2023-02-19T04:48:03;4.00;;;3.13;;
2161;SDS011;1087;50.226;8.682;2023-02-19T04:50:29;3.30;;;3.00;;
2161;SDS011;1087;50.226;8.682;2023-02-19T04:52:54;5.23;;;4.13;;
2161;SDS011;1087;50.226;8.682;2023-02-19T04:55:20;3.83;;;3.53;;
2161;SDS011;1087;50.226;8.682;2023-02-19T04:57:45;3.97;;;3.30;;
2161;SDS011;1087;50.226;8.682;2023-02-19T05:00:11;3.67;;;3.37;;
2161;SDS011;1087;50.226;8.682;2023-02-19T05:02:37;4.13;;;3.73;;
2161;SDS011;1087;50.226;8.682;2023-02-19T05:05:02;4.67;;;3.90;;
2161;SDS011;1087;50.226;8.682;2023-02-19T05:07:28;4.00;;;3.70;;
2161;SDS011;1087;50.226;8.682;2023-02-19T05:09:54;3.63;;;3.33;;
2161;SDS011;1087;50.226;8.682;2023-02-19T05:12:19;3.67;;;3.37;;
2161;SDS011;1087;50.226;8.682;2023-02-19T05:14:45;3.73;;;3.23;;
2161;SDS011;1087;50.226;8.682;2023-02-19T05:17:10;3.37;;;3.17;;
2161;SDS011;1087;50.226;8.682;2023-02-19T05:19:36;3.33;;;3.03;;
2161;SDS011;1087;50.226;8.682;2023-02-19T05:22:01;3.10;;;2.90;;
2161;SDS011;1087;50.226;8.682;2023-02-19T05:24:27;2.80;;;2.60;;
2161;SDS011;1087;50.226;8.682;2023-02-19T05:26:53;2.00;;;1.83;;
2161;SDS011;1087;50.226;8.682;2023-02-19T05:29:19;3.27;;;2.67;;
2161;SDS011;1087;50.226;8.682;2023-02-19T05:31:44;2.43;;;2.07;;
2161;SDS011;1087;50.226;8.682;2023-02-19T05:34:10;2.20;;;2.07;;
2161;SDS011;1087;50.226;8.682;2023-02-19T05:36:35;2.37;;;2.17;;
2161;SDS011;1087;50.226;8.682;2023-02-19T05:39:02;2.70;;;2.07;;
2161;SDS011;1087;50.226;8.682;2023-02-19T05:41:30;2.27;;;1.87;;
2161;SDS011;1087;50.226;8.682;2023-02-19T05:43:56;1.60;;;1.50;;
2161;SDS011;1087;50.226;8.682;2023-02-19T05:46:22;1.93;;;1.73;;
2161;SDS011;1087;50.226;8.682;2023-02-19T05:48:50;2.33;;;1.80;;
2161;SDS011;1087;50.226;8.682;2023-02-19T05:51:18;2.30;;;2.07;;
2161;SDS011;1087;50.226;8.682;2023-02-19T05:53:45;3.60;;;2.80;;
2161;SDS011;1087;50.226;8.682;2023-02-19T05:58:49;3.30;;;1.80;;
2161;SDS011;1087;50.226;8.682;2023-02-19T06:01:18;2.47;;;1.80;;
2161;SDS011;1087;50.226;8.682;2023-02-19T06:03:45;1.80;;;1.70;;
2161;SDS011;1087;50.226;8.682;2023-02-19T06:06:14;5.33;;;2.53;;
2161;SDS011;1087;50.226;8.682;2023-02-19T06:08:40;6.17;;;2.53;;
2161;SDS011;1087;50.226;8.682;2023-02-19T06:11:06;2.00;;;1.80;;
2161;SDS011;1087;50.226;8.682;2023-02-19T06:13:32;2.00;;;1.80;;
2161;SDS011;1087;50.226;8.682;2023-02-19T06:15:57;3.67;;;1.60;;
2161;SDS011;1087;50.226;8.682;2023-02-19T06:18:23;3.07;;;1.87;;
2161;SDS011;1087;50.226;8.682;2023-02-19T06:20:48;1.63;;;1.53;;
2161;SDS011;1087;50.226;8.682;2023-02-19T06:23:14;1.57;;;1.47;;
2161;SDS011;1087;50.226;8.682;2023-02-19T06:25:39;1.90;;;1.60;;
2161;SDS011;1087;50.226;8.682;2023-02-19T06:28:05;1.53;;;1.43;;
2161;SDS011;1087;50.226;8.682;2023-02-19T06:30:31;1.57;;;1.20;;
2161;SDS011;1087;50.226;8.682;2023-02-19T06:32:56;1.50;;;1.40;;
2161;SDS011;1087;50.226;8.682;2023-02-19T06:35:22;1.40;;;1.10;;
2161;SDS011;1087;50.226;8.682;2023-02-19T06:37:48;1.80;;;1.50;;
2161;SDS011;1087;50.226;8.682;2023-02-19T06:40:14;1.50;;;1.40;;
2161;SDS011;1087;50.226;8.682;2023-02-19T06:42:40;2.13;;;1.40;;
2161;SDS011;1087;50.226;8.682;2023-02-19T06:45:05;1.63;;;1.20;;
2161;SDS011;1087;50.226;8.682;2023-02-19T06:47:31;1.67;;;1.10;;
2161;SDS011;1087;50.226;8.682;2023-02-19T06:49:58;1.30;;;1.20;;
2161;SDS011;1087;50.226;8.682;2023-02-19T06:52:25;2.63;;;1.40;;
2161;SDS011;1087;50.226;8.682;2023-02-19T06:54:50;2.30;;;1.37;;
2161;SDS011;1087;50.226;8.682;2023-02-19T06:57:17;1.70;;;1.60;;
2161;SDS011;1087;50.226;8.682;2023-02-19T06:59:43;1.97;;;1.63;;
2161;SDS011;1087;50.226;8.682;2023-02-19T07:02:12;1.70;;;1.60;;
2161;SDS011;1087;50.226;8.682;2023-02-19T07:04:37;1.83;;;1.40;;
2161;SDS011;1087;50.226;8.682;2023-02-19T07:07:03;1.90;;;1.63;;
2161;SDS011;1087;50.226;8.682;2023-02-19T07:09:29;3.47;;;1.70;;
2161;SDS011;1087;50.226;8.682;2023-02-19T07:11:54;4.10;;;1.90;;
2161;SDS011;1087;50.226;8.682;2023-02-19T07:14:20;3.53;;;2.00;;
2161;SDS011;1087;50.226;8.682;2023-02-19T07:16:46;2.50;;;2.00;;
2161;SDS011;1087;50.226;8.682;2023-02-19T07:19:12;1.93;;;1.80;;
2161;SDS011;1087;50.226;8.682;2023-02-19T07:21:39;2.00;;;1.80;;
2161;SDS011;1087;50.226;8.682;2023-02-19T07:24:06;2.83;;;2.10;;
2161;SDS011;1087;50.226;8.682;2023-02-19T07:26:33;3.10;;;2.00;;
2161;SDS011;1087;50.226;8.682;2023-02-19T07:28:59;2.53;;;1.80;;
2161;SDS011;1087;50.226;8.682;2023-02-19T07:31:26;4.07;;;3.00;;
2161;SDS011;1087;50.226;8.682;2023-02-19T07:33:52;3.30;;;2.07;;
2161;SDS011;1087;50.226;8.682;2023-02-19T07:36:18;3.70;;;2.53;;
2161;SDS011;1087;50.226;8.682;2023-02-19T07:38:45;2.00;;;1.60;;
2161;SDS011;1087;50.226;8.682;2023-02-19T07:41:11;2.20;;;1.60;;
2161;SDS011;1087;50.226;8.682;2023-02-19T07:43:37;3.50;;;1.90;;
2161;SDS011;1087;50.226;8.682;2023-02-19T07:46:04;2.87;;;2.50;;
2161;SDS011;1087;50.226;8.682;2023-02-19T07:48:29;1.93;;;1.83;;
2161;SDS011;1087;50.226;8.682;2023-02-19T07:50:56;2.17;;;1.83;;
2161;SDS011;1087;50.226;8.682;2023-02-19T07:53:23;2.70;;;1.80;;
2161;SDS011;1087;50.226;8.682;2023-02-19T07:55:49;2.10;;;1.90;;
2161;SDS011;1087;50.226;8.682;2023-02-19T07:58:14;2.80;;;1.87;;
2161;SDS011;1087;50.226;8.682;2023-02-19T08:00:40;2.00;;;1.70;;
2161;SDS011;1087;50.226;8.682;2023-02-19T08:03:06;3.20;;;2.50;;
2161;SDS011;1087;50.226;8.682;2023-02-19T08:05:33;3.33;;;1.80;;
2161;SDS011;1087;50.226;8.682;2023-02-19T08:08:01;2.03;;;1.80;;
2161;SDS011;1087;50.226;8.682;2023-02-19T08:10:27;3.97;;;2.90;;
2161;SDS011;1087;50.226;8.682;2023-02-19T08:13:12;4.50;;;3.23;;
2161;SDS011;1087;50.226;8.682;2023-02-19T08:18:17;6.03;;;3.90;;
2161;SDS011;1087;50.226;8.682;2023-02-19T08:20:44;4.93;;;3.37;;
2161;SDS011;1087;50.226;8.682;2023-02-19T08:23:09;9.10;;;3.10;;
2161;SDS011;1087;50.226;8.682;2023-02-19T08:25:36;4.27;;;3.00;;
2161;SDS011;1087;50.226;8.682;2023-02-19T08:28:02;2.33;;;2.13;;
2161;SDS011;1087;50.226;8.682;2023-02-19T08:30:28;2.70;;;2.43;;
2161;SDS011;1087;50.226;8.682;2023-02-19T08:32:56;4.83;;;2.40;;
2161;SDS011;1087;50.226;8.682;2023-02-19T08:35:22;3.30;;;2.27;;
2161;SDS011;1087;50.226;8.682;2023-02-19T08:37:48;3.60;;;3.00;;
2161;SDS011;1087;50.226;8.682;2023-02-19T08:40:13;3.70;;;2.20;;
2161;SDS011;1087;50.226;8.682;2023-02-19T08:42:39;5.70;;;3.00;;
2161;SDS011;1087;50.226;8.682;2023-02-19T08:45:05;3.80;;;2.40;;
2161;SDS011;1087;50.226;8.682;2023-02-19T08:47:34;4.93;;;3.30;;
2161;SDS011;1087;50.226;8.682;2023-02-19T08:50:00;4.47;;;2.50;;
2161;SDS011;1087;50.226;8.682;2023-02-19T08:52:26;4.00;;;2.70;;
2161;SDS011;1087;50.226;8.682;2023-02-19T08:54:52;5.47;;;2.53;;
2161;SDS011;1087;50.226;8.682;2023-02-19T08:57:17;5.70;;;3.40;;
2161;SDS011;1087;50.226;8.682;2023-02-19T08:59:43;3.67;;;3.20;;
2161;SDS011;1087;50.226;8.682;2023-02-19T09:02:08;5.83;;;5.23;;
2161;SDS011;1087;50.226;8.682;2023-02-19T09:04:36;6.50;;;4.20;;
2161;SDS011;1087;50.226;8.682;2023-02-19T09:07:04;5.40;;;4.33;;
2161;SDS011;1087;50.226;8.682;2023-02-19T09:09:31;5.40;;;4.47;;
2161;SDS011;1087;50.226;8.682;2023-02-19T09:11:58;5.27;;;4.57;;
2161;SDS011;1087;50.226;8.682;2023-02-19T09:14:23;5.57;;;4.40;;
2161;SDS011;1087;50.226;8.682;2023-02-19T09:16:49;10.93;;;4.53;;
2161;SDS011;1087;50.226;8.682;2023-02-19T09:19:14;5.97;;;4.77;;
2161;SDS011;1087;50.226;8.682;2023-02-19T09:21:41;7.00;;;5.00;;
2161;SDS011;1087;50.226;8.682;2023-02-19T09:24:09;5.30;;;4.77;;
2161;SDS011;1087;50.226;8.682;2023-02-19T09:26:35;5.90;;;4.70;;
2161;SDS011;1087;50.226;8.682;2023-02-19T09:29:00;6.33;;;5.57;;
2161;SDS011;1087;50.226;8.682;2023-02-19T09:31:26;4.90;;;4.40;;
2161;SDS011;1087;50.226;8.682;2023-02-19T09:33:51;7.40;;;5.33;;
2161;SDS011;1087;50.226;8.682;2023-02-19T09:36:17;6.90;;;5.30;;
2161;SDS011;1087;50.226;8.682;2023-02-19T09:38:43;7.67;;;5.07;;
2161;SDS011;1087;50.226;8.682;2023-02-19T09:41:17;5.17;;;4.60;;
2161;SDS011;1087;50.226;8.682;2023-02-19T09:43:58;5.27;;;3.87;;
2161;SDS011;1087;50.226;8.682;2023-02-19T09:49:04;5.10;;;4.20;;
2161;SDS011;1087;50.226;8.682;2023-02-19T09:51:33;7.37;;;3.90;;
2161;SDS011;1087;50.226;8.682;2023-02-19T09:54:00;5.87;;;3.83;;
2161;SDS011;1087;50.226;8.682;2023-02-19T09:56:28;3.87;;;3.47;;
2161;SDS011;1087;50.226;8.682;2023-02-19T09:58:55;6.60;;;3.50;;
2161;SDS011;1087;50.226;8.682;2023-02-19T10:01:23;3.90;;;3.50;;
2161;SDS011;1087;50.226;8.682;2023-02-19T10:03:51;3.17;;;2.67;;
2161;SDS011;1087;50.226;8.682;2023-02-19T10:06:21;4.30;;;3.20;;
2161;SDS011;1087;50.226;8.682;2023-02-19T10:08:50;3.57;;;3.10;;
2161;SDS011;1087;50.226;8.682;2023-02-19T10:11:18;4.07;;;3.30;;
2161;SDS011;1087;50.226;8.682;2023-02-19T10:13:48;3.20;;;2.60;;
2161;SDS011;1087;50.226;8.682;2023-02-19T10:16:23;4.57;;;3.60;;
2161;SDS011;1087;50.226;8.682;2023-02-19T10:18:50;3.00;;;2.77;;
2161;SDS011;1087;50.226;8.682;2023-02-19T10:21:18;3.50;;;3.20;;
2161;SDS011;1087;50.226;8.682;2023-02-19T10:23:49;3.20;;;2.90;;
2161;SDS011;1087;50.226;8.682;2023-02-19T10:26:18;6.37;;;3.07;;
2161;SDS011;1087;50.226;8.682;2023-02-19T10:28:43;3.60;;;3.07;;
2161;SDS011;1087;50.226;8.682;2023-02-19T10:31:20;4.20;;;3.80;;
2161;SDS011;1087;50.226;8.682;2023-02-19T10:33:56;5.60;;;4.30;;
2161;SDS011;1087;50.226;8.682;2023-02-19T10:38:50;7.30;;;2.50;;
2161;SDS011;1087;50.226;8.682;2023-02-19T10:41:18;3.87;;;3.47;;
2161;SDS011;1087;50.226;8.682;2023-02-19T10:43:58;3.70;;;2.73;;
2161;SDS011;1087;50.226;8.682;2023-02-19T10:46:32;2.93;;;2.60;;
2161;SDS011;1087;50.226;8.682;2023-02-19T10:49:03;3.60;;;2.50;;
2161;SDS011;1087;50.226;8.682;2023-02-19T10:51:37;3.33;;;3.03;;
2161;SDS011;1087;50.226;8.682;2023-02-19T10:56:41;5.00;;;3.53;;
2161;SDS011;1087;50.226;8.682;2023-02-19T10:59:26;4.83;;;2.37;;
2161;SDS011;1087;50.226;8.682;2023-02-19T11:01:53;3.23;;;2.93;;
2161;SDS011;1087;50.226;8.682;2023-02-19T11:04:40;3.73;;;3.20;;
2161;SDS011;1087;50.226;8.682;2023-02-19T11:07:06;7.43;;;3.70;;
2161;SDS011;1087;50.226;8.682;2023-02-19T11:09:36;3.00;;;2.70;;
2161;SDS011;1087;50.226;8.682;2023-02-19T11:12:03;4.57;;;3.60;;
2161;SDS011;1087;50.226;8.682;2023-02-19T11:14:29;9.07;;;3.43;;
2161;SDS011;1087;50.226;8.682;2023-02-19T11:16:58;5.60;;;4.70;;
2161;SDS011;1087;50.226;8.682;2023-02-19T11:21:57;8.30;;;4.97;;
2161;SDS011;1087;50.226;8.682;2023-02-19T11:24:33;4.47;;;4.07;;
2161;SDS011;1087;50.226;8.682;2023-02-19T11:27:05;6.33;;;5.40;;
2161;SDS011;1087;50.226;8.682;2023-02-19T11:29:39;5.60;;;4.10;;
2161;SDS011;1087;50.226;8.682;2023-02-19T11:32:22;7.20;;;6.50;;
2161;SDS011;1087;50.226;8.682;2023-02-19T11:34:50;6.20;;;4.80;;
2161;SDS011;1087;50.226;8.682;2023-02-19T11:37:17;7.00;;;5.07;;
2161;SDS011;1087;50.226;8.682;2023-02-19T11:39:48;5.50;;;4.87;;
2161;SDS011;1087;50.226;8.682;2023-02-19T11:42:34;6.47;;;5.27;;
2161;SDS011;1087;50.226;8.682;2023-02-19T11:51:04;7.63;;;5.70;;
2161;SDS011;1087;50.226;8.682;2023-02-19T11:53:45;7.47;;;5.17;;
2161;SDS011;1087;50.226;8.682;2023-02-19T11:56:20;7.40;;;6.70;;
2161;SDS011;1087;50.226;8.682;2023-02-19T12:07:02;5.87;;;4.80;;
2161;SDS011;1087;50.226;8.682;2023-02-19T12:09:56;8.43;;;5.10;;
2161;SDS011;1087;50.226;8.682;2023-02-19T12:18:33;5.13;;;4.63;;
2161;SDS011;1087;50.226;8.682;2023-02-19T12:24:13;8.87;;;5.87;;
2161;SDS011;1087;50.226;8.682;2023-02-19T12:32:30;6.00;;;5.10;;
2161;SDS011;1087;50.226;8.682;2023-02-19T12:40:37;4.47;;;4.13;;
2161;SDS011;1087;50.226;8.682;2023-02-19T12:45:51;5.70;;;5.07;;
2161;SDS011;1087;50.226;8.682;2023-02-19T12:48:30;6.63;;;5.20;;
2161;SDS011;1087;50.226;8.682;2023-02-19T12:51:20;6.10;;;4.27;;
2161;SDS011;1087;50.226;8.682;2023-02-19T12:54:09;8.10;;;4.30;;
2161;SDS011;1087;50.226;8.682;2023-02-19T12:56:41;7.17;;;4.20;;
2161;SDS011;1087;50.226;8.682;2023-02-19T12:59:21;4.50;;;4.10;;
2161;SDS011;1087;50.226;8.682;2023-02-19T13:05:00;4.67;;;3.90;;
2161;SDS011;1087;50.226;8.682;2023-02-19T13:07:55;6.23;;;4.20;;
2161;SDS011;1087;50.226;8.682;2023-02-19T13:10:35;4.13;;;3.83;;
2161;SDS011;1087;50.226;8.682;2023-02-19T13:13:08;5.33;;;4.10;;
2161;SDS011;1087;50.226;8.682;2023-02-19T13:15:44;4.70;;;3.93;;
2161;SDS011;1087;50.226;8.682;2023-02-19T13:18:13;7.83;;;5.80;;
2161;SDS011;1087;50.226;8.682;2023-02-19T13:20:43;5.60;;;3.97;;
2161;SDS011;1087;50.226;8.682;2023-02-19T13:23:13;4.43;;;4.03;;
2161;SDS011;1087;50.226;8.682;2023-02-19T13:34:38;7.93;;;6.27;;
2161;SDS011;1087;50.226;8.682;2023-02-19T13:37:07;7.40;;;5.23;;
2161;SDS011;1087;50.226;8.682;2023-02-19T13:39:33;4.50;;;4.10;;
2161;SDS011;1087;50.226;8.682;2023-02-19T13:41:59;4.77;;;4.37;;
2161;SDS011;1087;50.226;8.682;2023-02-19T13:44:26;7.17;;;3.97;;
2161;SDS011;1087;50.226;8.682;2023-02-19T13:46:53;3.80;;;3.50;;
2161;SDS011;1087;50.226;8.682;2023-02-19T13:49:24;3.27;;;2.97;;
2161;SDS011;1087;50.226;8.682;2023-02-19T13:54:50;4.13;;;3.50;;
2161;SDS011;1087;50.226;8.682;2023-02-19T13:59:48;4.27;;;3.10;;
2161;SDS011;1087;50.226;8.682;2023-02-19T14:04:58;4.90;;;3.07;;
2161;SDS011;1087;50.226;8.682;2023-02-19T14:10:03;5.50;;;3.63;;
2161;SDS011;1087;50.226;8.682;2023-02-19T14:12:33;5.03;;;4.57;;
2161;SDS011;1087;50.226;8.682;2023-02-19T14:18:39;4.30;;;3.57;;
2161;SDS011;1087;50.226;8.682;2023-02-19T14:21:24;6.30;;;4.03;;
2161;SDS011;1087;50.226;8.682;2023-02-19T14:23:59;4.97;;;4.57;;
2161;SDS011;1087;50.226;8.682;2023-02-19T14:26:26;4.00;;;3.60;;
2161;SDS011;1087;50.226;8.682;2023-02-19T14:28:55;3.87;;;3.13;;
2161;SDS011;1087;50.226;8.682;2023-02-19T14:31:28;4.80;;;4.20;;
2161;SDS011;1087;50.226;8.682;2023-02-19T14:33:57;5.10;;;3.30;;
2161;SDS011;1087;50.226;8.682;2023-02-19T14:38:59;3.83;;;3.20;;
2161;SDS011;1087;50.226;8.682;2023-02-19T14:41:29;5.03;;;3.43;;
2161;SDS011;1087;50.226;8.682;2023-02-19T14:44:00;3.93;;;3.37;;
2161;SDS011;1087;50.226;8.682;2023-02-19T14:46:30;2.67;;;2.47;;
2161;SDS011;1087;50.226;8.682;2023-02-19T14:51:50;4.70;;;3.03;;
2161;SDS011;1087;50.226;8.682;2023-02-19T14:54:28;3.77;;;3.23;;
2161;SDS011;1087;50.226;8.682;2023-02-19T14:57:00;2.63;;;2.20;;
2161;SDS011;1087;50.226;8.682;2023-02-19T14:59:28;2.73;;;2.47;;
2161;SDS011;1087;50.226;8.682;2023-02-19T15:02:01;3.37;;;2.43;;
2161;SDS011;1087;50.226;8.682;2023-02-19T15:04:37;3.50;;;2.33;;
2161;SDS011;1087;50.226;8.682;2023-02-19T15:07:08;2.80;;;2.40;;
2161;SDS011;1087;50.226;8.682;2023-02-19T15:09:42;5.00;;;1.90;;
2161;SDS011;1087;50.226;8.682;2023-02-19T15:12:15;2.90;;;2.33;;
2161;SDS011;1087;50.226;8.682;2023-02-19T15:14:43;2.50;;;2.30;;
2161;SDS011;1087;50.226;8.682;2023-02-19T15:17:10;2.47;;;2.27;;
2161;SDS011;1087;50.226;8.682;2023-02-19T15:19:41;2.83;;;2.63;;
2161;SDS011;1087;50.226;8.682;2023-02-19T15:22:11;2.83;;;2.63;;
2161;SDS011;1087;50.226;8.682;2023-02-19T15:24:44;3.30;;;2.33;;
2161;SDS011;1087;50.226;8.682;2023-02-19T15:27:20;2.33;;;2.00;;
2161;SDS011;1087;50.226;8.682;2023-02-19T15:29:48;2.33;;;2.13;;
2161;SDS011;1087;50.226;8.682;2023-02-19T15:32:20;2.57;;;2.37;;
2161;SDS011;1087;50.226;8.682;2023-02-19T15:34:55;3.47;;;2.30;;
2161;SDS011;1087;50.226;8.682;2023-02-19T15:37:26;3.00;;;2.27;;
2161;SDS011;1087;50.226;8.682;2023-02-19T15:39:55;2.30;;;2.00;;
2161;SDS011;1087;50.226;8.682;2023-02-19T15:42:27;2.30;;;2.10;;
2161;SDS011;1087;50.226;8.682;2023-02-19T15:45:02;2.10;;;1.90;;
2161;SDS011;1087;50.226;8.682;2023-02-19T15:50:30;2.50;;;2.30;;
2161;SDS011;1087;50.226;8.682;2023-02-19T15:53:03;3.20;;;1.80;;
2161;SDS011;1087;50.226;8.682;2023-02-19T15:58:07;1.80;;;1.70;;
2161;SDS011;1087;50.226;8.682;2023-02-19T16:03:26;2.00;;;1.90;;
2161;SDS011;1087;50.226;8.682;2023-02-19T16:06:27;2.97;;;2.67;;
2161;SDS011;1087;50.226;8.682;2023-02-19T16:09:04;2.50;;;2.10;;
2161;SDS011;1087;50.226;8.682;2023-02-19T16:16:53;2.33;;;2.13;;
2161;SDS011;1087;50.226;8.682;2023-02-19T16:19:23;2.13;;;1.93;;
2161;SDS011;1087;50.226;8.682;2023-02-19T16:21:50;2.40;;;2.07;;
2161;SDS011;1087;50.226;8.682;2023-02-19T16:24:22;3.20;;;2.40;;
2161;SDS011;1087;50.226;8.682;2023-02-19T16:26:54;2.00;;;1.83;;
2161;SDS011;1087;50.226;8.682;2023-02-19T16:29:24;8.00;;;7.20;;
2161;SDS011;1087;50.226;8.682;2023-02-19T16:31:59;4.00;;;3.50;;
2161;SDS011;1087;50.226;8.682;2023-02-19T16:34:30;3.43;;;2.50;;
2161;SDS011;1087;50.226;8.682;2023-02-19T16:36:58;8.53;;;5.20;;
2161;SDS011;1087;50.226;8.682;2023-02-19T16:39:25;3.70;;;2.10;;
2161;SDS011;1087;50.226;8.682;2023-02-19T16:46:44;3.57;;;3.23;;
2161;SDS011;1087;50.226;8.682;2023-02-19T16:49:10;3.40;;;3.10;;
2161;SDS011;1087;50.226;8.682;2023-02-19T16:51:36;3.77;;;3.47;;
2161;SDS011;1087;50.226;8.682;2023-02-19T16:54:02;3.10;;;2.80;;
2161;SDS011;1087;50.226;8.682;2023-02-19T16:56:28;3.47;;;3.17;;
2161;SDS011;1087;50.226;8.682;2023-02-19T16:58:54;3.33;;;2.73;;
2161;SDS011;1087;50.226;8.682;2023-02-19T17:01:20;3.57;;;3.27;;
2161;SDS011;1087;50.226;8.682;2023-02-19T17:03:46;3.67;;;3.03;;
2161;SDS011;1087;50.226;8.682;2023-02-19T17:06:11;3.80;;;2.60;;
2161;SDS011;1087;50.226;8.682;2023-02-19T17:08:41;3.03;;;2.73;;
2161;SDS011;1087;50.226;8.682;2023-02-19T17:11:15;6.17;;;3.93;;
2161;SDS011;1087;50.226;8.682;2023-02-19T17:13:42;5.60;;;4.20;;
2161;SDS011;1087;50.226;8.682;2023-02-19T17:16:11;7.83;;;5.73;;
2161;SDS011;1087;50.226;8.682;2023-02-19T17:18:41;4.30;;;2.83;;
2161;SDS011;1087;50.226;8.682;2023-02-19T17:21:14;4.73;;;3.70;;
2161;SDS011;1087;50.226;8.682;2023-02-19T17:23:43;2.97;;;2.67;;
2161;SDS011;1087;50.226;8.682;2023-02-19T17:26:12;3.97;;;3.60;;
2161;SDS011;1087;50.226;8.682;2023-02-19T17:28:43;38.87;;;21.30;;
2161;SDS011;1087;50.226;8.682;2023-02-19T17:31:09;12.67;;;6.40;;